Terminal Aerodrome Forecast
Issued by NWS

Home | Current Version | Previous Version | Text Only | Print | Product List | Glossary On
Versions: 1 2 3 4 5 6 7 8 9 10 11 12 13 14 15 16 17 18
715
FTUS43 KLSX 131720
TAFSUS
TAF
KSUS 131720Z 1318/1418 34008KT P6SM BKN080
     FM132300 VRB03KT P6SM SCT080
     FM140500 11003KT P6SM BKN200
     FM141300 14005KT P6SM OVC060=

USA.gov is the U.S. government's official web portal to all federal, state and local government web resources and services.